createdAt,value
2023-09-25T00:00:43.338Z,0.60
2023-09-25T00:01:43.034Z,0.70
2023-09-25T00:02:43.260Z,0.60
2023-09-25T00:03:43.391Z,0.70
2023-09-25T00:04:43.100Z,0.60
2023-09-25T00:05:43.217Z,0.60
2023-09-25T00:06:43.090Z,0.70
2023-09-25T00:07:42.957Z,0.80
2023-09-25T00:08:43.266Z,0.70
2023-09-25T00:09:42.950Z,0.60
2023-09-25T00:10:42.922Z,0.80
2023-09-25T00:11:43.275Z,0.70
2023-09-25T00:12:42.944Z,0.60
2023-09-25T00:13:42.898Z,0.60
2023-09-25T00:14:43.254Z,0.80
2023-09-25T00:15:42.969Z,0.60
2023-09-25T00:16:42.888Z,0.50
2023-09-25T00:17:43.017Z,0.70
2023-09-25T00:18:42.949Z,0.60
2023-09-25T00:19:42.827Z,0.70
2023-09-25T00:20:42.814Z,0.70
2023-09-25T00:21:42.896Z,0.80
2023-09-25T00:22:42.823Z,0.60
2023-09-25T00:23:43.218Z,0.70
2023-09-25T00:24:42.772Z,0.90
2023-09-25T00:25:42.776Z,0.60
2023-09-25T00:26:42.877Z,0.90
2023-09-25T00:27:42.831Z,0.70
2023-09-25T00:28:42.704Z,0.80
2023-09-25T00:29:42.715Z,0.60
2023-09-25T00:30:42.745Z,0.60
2023-09-25T00:31:42.772Z,1.10
2023-09-25T00:32:42.764Z,0.60
2023-09-25T00:33:42.752Z,0.80
2023-09-25T00:34:42.849Z,1.00
2023-09-25T00:35:42.833Z,0.70
2023-09-25T00:36:42.803Z,1.10
2023-09-25T00:37:42.820Z,0.70
2023-09-25T00:38:42.967Z,0.80
2023-09-25T00:39:42.944Z,0.80
2023-09-25T00:40:42.574Z,0.80
2023-09-25T00:41:42.623Z,0.60
2023-09-25T00:42:42.950Z,0.60
2023-09-25T00:43:42.551Z,0.80
2023-09-25T00:44:42.590Z,0.90
2023-09-25T00:45:42.585Z,0.90
2023-09-25T00:46:42.542Z,0.80
2023-09-25T00:47:42.908Z,0.70
2023-09-25T00:48:42.538Z,0.70
2023-09-25T00:49:43.150Z,0.70
2023-09-25T00:50:42.816Z,0.90
2023-09-25T00:51:42.481Z,0.80
2023-09-25T00:52:42.879Z,0.60
2023-09-25T00:53:42.777Z,0.80
2023-09-25T00:54:43.199Z,1.00
2023-09-25T00:55:42.876Z,0.70
2023-09-25T00:56:43.289Z,0.90
2023-09-25T00:57:43.350Z,0.60
2023-09-25T00:58:42.391Z,0.60
2023-09-25T00:59:42.656Z,0.80
2023-09-25T01:00:42.935Z,0.70
2023-09-25T01:01:42.645Z,0.70
2023-09-25T01:02:42.455Z,0.70
2023-09-25T01:03:42.348Z,1.10
2023-09-25T01:04:42.316Z,0.70
2023-09-25T01:05:42.323Z,0.70
2023-09-25T01:06:42.303Z,0.60
2023-09-25T01:07:42.284Z,0.80
2023-09-25T01:08:42.337Z,0.90
2023-09-25T01:09:42.267Z,0.80
2023-09-25T01:10:42.253Z,0.80
2023-09-25T01:11:42.226Z,0.60
2023-09-25T01:12:42.273Z,1.10
2023-09-25T01:13:42.189Z,0.70
2023-09-25T01:14:42.221Z,0.60
2023-09-25T01:15:42.386Z,0.80
2023-09-25T01:16:42.238Z,0.80
2023-09-25T01:17:42.162Z,0.90
2023-09-25T01:18:42.343Z,0.70
2023-09-25T01:19:42.130Z,0.70
2023-09-25T01:20:42.142Z,0.60
2023-09-25T01:21:42.170Z,0.80
2023-09-25T01:22:42.174Z,0.80
2023-09-25T01:23:42.082Z,0.80
2023-09-25T01:24:42.291Z,0.80
2023-09-25T01:25:42.070Z,0.80
2023-09-25T01:26:42.068Z,0.80
2023-09-25T01:27:42.084Z,0.80
2023-09-25T01:28:42.048Z,0.60
2023-09-25T01:29:42.033Z,0.80
2023-09-25T01:30:42.363Z,0.80
2023-09-25T01:31:41.991Z,0.70
2023-09-25T01:32:42.016Z,0.70
2023-09-25T01:33:42.101Z,0.80
2023-09-25T01:34:42.360Z,0.90
2023-09-25T01:35:41.965Z,0.90
2023-09-25T01:36:42.133Z,0.70
2023-09-25T01:37:41.918Z,0.80
2023-09-25T01:38:42.341Z,0.80
2023-09-25T01:39:42.371Z,0.80
2023-09-25T01:40:41.917Z,0.90
2023-09-25T01:41:41.862Z,0.60
2023-09-25T01:42:42.385Z,0.70
2023-09-25T01:43:42.329Z,0.80
2023-09-25T01:44:41.853Z,0.80
2023-09-25T01:45:41.885Z,0.80
2023-09-25T01:46:42.370Z,1.10
2023-09-25T01:47:41.825Z,1.10
2023-09-25T01:48:42.199Z,0.80
2023-09-25T01:49:41.841Z,1.00
2023-09-25T01:50:41.808Z,0.90
2023-09-25T01:51:42.159Z,0.80
2023-09-25T01:52:41.791Z,0.90
2023-09-25T01:53:41.756Z,0.60
2023-09-25T01:54:42.402Z,0.80
2023-09-25T01:55:41.740Z,0.70
2023-09-25T01:56:41.723Z,0.60
2023-09-25T01:57:41.878Z,0.70
2023-09-25T01:58:41.702Z,0.70
2023-09-25T01:59:41.668Z,0.80
2023-09-25T02:00:41.737Z,0.70
2023-09-25T02:01:41.671Z,0.90
2023-09-25T02:02:41.936Z,0.70
2023-09-25T02:03:41.939Z,0.90
2023-09-25T02:04:42.171Z,0.90
2023-09-25T02:05:41.783Z,0.80
2023-09-25T02:06:41.835Z,0.90
2023-09-25T02:07:42.354Z,0.60
2023-09-25T02:08:41.586Z,1.00
2023-09-25T02:09:41.589Z,0.80
2023-09-25T02:10:41.861Z,1.00
2023-09-25T02:11:41.530Z,0.80
2023-09-25T02:12:41.601Z,0.80
2023-09-25T02:13:41.608Z,0.80
2023-09-25T02:14:41.511Z,0.90
2023-09-25T02:15:41.720Z,0.80
2023-09-25T02:16:41.584Z,0.80
2023-09-25T02:17:41.496Z,0.80
2023-09-25T02:18:41.777Z,1.10
2023-09-25T02:19:41.443Z,0.90
2023-09-25T02:20:41.510Z,0.90
2023-09-25T02:21:41.430Z,1.10
2023-09-25T02:22:41.842Z,0.90
2023-09-25T02:23:41.394Z,0.90
2023-09-25T02:24:41.434Z,0.80
2023-09-25T02:25:41.390Z,0.70
2023-09-25T02:26:41.379Z,0.90
2023-09-25T02:27:41.400Z,0.90
2023-09-25T02:28:41.387Z,1.00
2023-09-25T02:29:41.330Z,0.80
2023-09-25T02:30:41.403Z,1.00
2023-09-25T02:31:41.374Z,0.70
2023-09-25T02:32:41.362Z,0.90
2023-09-25T02:33:41.331Z,0.80
2023-09-25T02:34:41.795Z,0.90
2023-09-25T02:35:41.269Z,0.90
2023-09-25T02:36:41.313Z,1.00
2023-09-25T02:37:41.243Z,0.90
2023-09-25T02:38:41.299Z,1.00
2023-09-25T02:39:41.231Z,0.90
2023-09-25T02:40:41.257Z,0.80
2023-09-25T02:41:41.198Z,1.00
2023-09-25T02:42:41.222Z,1.00
2023-09-25T02:43:41.191Z,0.90
2023-09-25T02:44:41.240Z,1.00
2023-09-25T02:45:41.230Z,0.80
2023-09-25T02:46:41.281Z,1.00
2023-09-25T02:47:41.128Z,0.80
2023-09-25T02:48:41.198Z,1.10
2023-09-25T02:49:41.299Z,0.90
2023-09-25T02:50:41.115Z,1.20
2023-09-25T02:51:41.153Z,1.20
2023-09-25T02:52:41.334Z,1.00
2023-09-25T02:53:41.054Z,1.10
2023-09-25T02:54:41.123Z,1.00
2023-09-25T02:55:41.401Z,1.00
2023-09-25T02:56:41.052Z,1.00
2023-09-25T02:57:41.165Z,1.00
2023-09-25T02:58:41.521Z,1.40
2023-09-25T02:59:41.399Z,1.00
2023-09-25T03:00:41.025Z,0.90
2023-09-25T03:01:40.996Z,0.80
2023-09-25T03:02:41.150Z,1.30
2023-09-25T03:03:40.960Z,1.10
2023-09-25T03:04:41.156Z,1.00
2023-09-25T03:05:40.977Z,0.80
2023-09-25T03:06:40.991Z,0.90
2023-09-25T03:07:40.910Z,0.90
2023-09-25T03:08:40.916Z,1.20
2023-09-25T03:09:40.935Z,1.00
2023-09-25T03:10:41.186Z,1.10
2023-09-25T03:11:40.862Z,1.20
2023-09-25T03:12:40.856Z,1.10
2023-09-25T03:13:40.839Z,1.30
2023-09-25T03:14:41.303Z,1.50
2023-09-25T03:15:40.886Z,1.10
2023-09-25T03:16:40.820Z,1.10
2023-09-25T03:17:40.803Z,1.20
2023-09-25T03:18:40.825Z,1.00
2023-09-25T03:19:40.762Z,1.00
2023-09-25T03:20:40.767Z,1.10
2023-09-25T03:21:40.779Z,1.30
2023-09-25T03:22:41.499Z,1.30
2023-09-25T03:23:40.707Z,1.30
2023-09-25T03:24:41.543Z,1.10
2023-09-25T03:25:40.719Z,1.20
2023-09-25T03:26:40.690Z,1.10
2023-09-25T03:27:40.828Z,1.10
2023-09-25T03:28:40.690Z,1.30
2023-09-25T03:29:40.652Z,1.20
2023-09-25T03:30:41.481Z,1.20
2023-09-25T03:31:40.714Z,1.40
2023-09-25T03:32:41.135Z,1.20
2023-09-25T03:33:40.638Z,1.40
2023-09-25T03:34:41.147Z,1.20
2023-09-25T03:35:40.575Z,1.40
2023-09-25T03:36:40.662Z,1.30
2023-09-25T03:37:40.572Z,1.80
2023-09-25T03:38:40.899Z,1.60
2023-09-25T03:39:40.716Z,1.50
2023-09-25T03:40:41.450Z,1.40
2023-09-25T03:41:40.514Z,1.50
2023-09-25T03:42:40.633Z,1.40
2023-09-25T03:43:40.487Z,1.30
2023-09-25T03:44:40.500Z,1.40
2023-09-25T03:45:40.510Z,1.10
2023-09-25T03:46:40.874Z,1.20
2023-09-25T03:47:40.495Z,1.60
2023-09-25T03:48:40.526Z,1.20
2023-09-25T03:49:40.821Z,1.40
2023-09-25T03:50:40.459Z,1.50
2023-09-25T03:51:40.517Z,1.30
2023-09-25T03:52:40.413Z,1.30
2023-09-25T03:53:40.398Z,1.10
2023-09-25T03:54:40.521Z,1.20
2023-09-25T03:55:40.338Z,1.10
2023-09-25T03:56:40.471Z,1.10
2023-09-25T03:57:40.373Z,0.90
2023-09-25T03:58:40.313Z,1.10
2023-09-25T03:59:40.455Z,1.10
2023-09-25T04:00:40.393Z,1.10
2023-09-25T04:01:40.289Z,1.30
2023-09-25T04:02:40.592Z,1.10
2023-09-25T04:03:40.374Z,0.90
2023-09-25T04:04:40.698Z,0.90
2023-09-25T04:05:40.250Z,1.10
2023-09-25T04:06:40.256Z,1.20
2023-09-25T04:07:40.218Z,1.50
2023-09-25T04:08:40.228Z,1.10
2023-09-25T04:09:40.497Z,1.20
2023-09-25T04:10:40.204Z,1.20
2023-09-25T04:11:40.149Z,1.40
2023-09-25T04:12:40.206Z,1.20
2023-09-25T04:13:40.142Z,1.80
2023-09-25T04:14:40.490Z,1.30
2023-09-25T04:15:40.119Z,1.40
2023-09-25T04:16:40.180Z,1.00
2023-09-25T04:17:40.734Z,1.20
2023-09-25T04:18:40.636Z,1.00
2023-09-25T04:19:40.217Z,1.00
2023-09-25T04:20:40.307Z,0.90
2023-09-25T04:21:40.074Z,0.90
2023-09-25T04:22:40.487Z,1.00
2023-09-25T04:23:40.487Z,0.90
2023-09-25T04:24:40.065Z,1.10
2023-09-25T04:25:40.186Z,1.30
2023-09-25T04:26:40.490Z,1.10
2023-09-25T04:27:40.619Z,1.00
2023-09-25T04:28:40.007Z,1.10
2023-09-25T04:29:39.981Z,1.10
2023-09-25T04:30:40.676Z,0.90
2023-09-25T04:31:39.995Z,1.20
2023-09-25T04:32:40.391Z,1.00
2023-09-25T04:33:39.968Z,0.90
2023-09-25T04:34:40.441Z,1.00
2023-09-25T04:35:39.872Z,0.90
2023-09-25T04:36:40.579Z,0.90
2023-09-25T04:37:39.866Z,0.90
2023-09-25T04:38:40.504Z,0.90
2023-09-25T04:39:39.880Z,1.10
2023-09-25T04:40:40.928Z,1.00
2023-09-25T04:41:40.508Z,1.20
2023-09-25T04:42:40.562Z,1.00
2023-09-25T04:43:39.823Z,1.20
2023-09-25T04:44:39.816Z,1.10
2023-09-25T04:45:39.866Z,0.90
2023-09-25T04:46:39.903Z,0.90
2023-09-25T04:47:39.754Z,0.80
2023-09-25T04:48:39.909Z,1.00
2023-09-25T04:49:39.785Z,1.00
2023-09-25T04:50:40.000Z,1.00
2023-09-25T04:51:39.865Z,0.90
2023-09-25T04:52:40.060Z,0.90
2023-09-25T04:53:39.776Z,0.80
2023-09-25T04:54:39.812Z,1.10
2023-09-25T04:55:39.677Z,1.00
2023-09-25T04:56:39.747Z,1.00
2023-09-25T04:57:40.336Z,1.00
2023-09-25T04:58:40.284Z,1.10
2023-09-25T04:59:39.815Z,1.00
2023-09-25T05:00:40.327Z,1.10
2023-09-25T05:01:39.646Z,1.20
2023-09-25T05:02:40.350Z,0.80
2023-09-25T05:03:41.027Z,1.00
2023-09-25T05:04:39.558Z,1.00
2023-09-25T05:05:39.548Z,1.00
2023-09-25T05:06:39.650Z,1.10
2023-09-25T05:07:39.507Z,1.10
2023-09-25T05:08:39.530Z,1.10
2023-09-25T05:09:39.510Z,0.90
2023-09-25T05:10:39.496Z,1.00
2023-09-25T05:11:39.498Z,1.00
2023-09-25T05:12:39.540Z,0.90
2023-09-25T05:13:39.464Z,0.90
2023-09-25T05:14:39.451Z,0.90
2023-09-25T05:15:39.481Z,1.10
2023-09-25T05:16:39.447Z,1.00
2023-09-25T05:17:39.502Z,1.10
2023-09-25T05:18:39.461Z,1.00
2023-09-25T05:19:39.432Z,0.80
2023-09-25T05:20:39.377Z,1.00
2023-09-25T05:21:39.429Z,0.90
2023-09-25T05:22:39.360Z,1.10
2023-09-25T05:23:39.349Z,0.80
2023-09-25T05:24:39.358Z,0.90
2023-09-25T05:25:39.318Z,0.90
2023-09-25T05:26:39.319Z,1.00
2023-09-25T05:27:39.396Z,1.00
2023-09-25T05:28:39.285Z,1.10
2023-09-25T05:29:39.261Z,1.10
2023-09-25T05:30:39.615Z,0.90
2023-09-25T05:31:39.281Z,1.20
2023-09-25T05:32:39.265Z,0.90
2023-09-25T05:33:39.295Z,1.00
2023-09-25T05:34:39.206Z,1.10
2023-09-25T05:35:39.217Z,1.20
2023-09-25T05:36:39.263Z,1.00
2023-09-25T05:37:39.209Z,1.00
2023-09-25T05:38:39.293Z,0.90
2023-09-25T05:39:39.210Z,1.00
2023-09-25T05:40:39.127Z,1.00
2023-09-25T05:41:39.166Z,0.90
2023-09-25T05:42:39.147Z,1.00
2023-09-25T05:43:39.105Z,0.90
2023-09-25T05:44:39.105Z,1.10
2023-09-25T05:45:39.113Z,1.10
2023-09-25T05:46:39.114Z,1.10
2023-09-25T05:47:39.077Z,1.00
2023-09-25T05:48:39.580Z,1.00
2023-09-25T05:49:39.073Z,1.10
2023-09-25T05:50:39.009Z,1.00
2023-09-25T05:51:39.097Z,1.20
2023-09-25T05:52:38.989Z,1.00
2023-09-25T05:53:39.000Z,0.90
2023-09-25T05:54:39.027Z,1.10
2023-09-25T05:55:38.978Z,1.10
2023-09-25T05:56:38.942Z,0.90
2023-09-25T05:57:39.014Z,1.10
2023-09-25T05:58:38.925Z,1.00
2023-09-25T05:59:38.962Z,1.10
2023-09-25T06:00:39.966Z,1.00
2023-09-25T06:01:38.962Z,1.30
2023-09-25T06:02:39.620Z,1.10
2023-09-25T06:03:38.977Z,0.90
2023-09-25T06:04:38.975Z,0.80
2023-09-25T06:05:38.865Z,1.00
2023-09-25T06:06:38.867Z,1.10
2023-09-25T06:07:38.838Z,1.00
2023-09-25T06:08:38.810Z,1.10
2023-09-25T06:09:38.861Z,1.00
2023-09-25T06:10:38.817Z,1.10
2023-09-25T06:11:38.790Z,1.00
2023-09-25T06:12:38.822Z,1.10
2023-09-25T06:13:38.788Z,0.90
2023-09-25T06:14:38.737Z,1.00
2023-09-25T06:15:38.969Z,1.20
2023-09-25T06:16:38.784Z,1.10
2023-09-25T06:17:38.791Z,1.00
2023-09-25T06:18:38.713Z,1.10
2023-09-25T06:19:38.716Z,1.60
2023-09-25T06:20:38.691Z,1.20
2023-09-25T06:21:38.710Z,1.20
2023-09-25T06:22:39.597Z,1.30
2023-09-25T06:23:38.662Z,1.40
2023-09-25T06:24:38.701Z,1.10
2023-09-25T06:25:38.657Z,1.00
2023-09-25T06:26:38.649Z,1.20
2023-09-25T06:27:38.656Z,1.00
2023-09-25T06:28:38.573Z,1.20
2023-09-25T06:29:38.613Z,1.10
2023-09-25T06:30:38.609Z,1.10
2023-09-25T06:31:53.785Z,1.00
2023-09-25T06:32:39.627Z,1.20
2023-09-25T06:33:38.640Z,0.90
2023-09-25T06:34:38.628Z,1.00
2023-09-25T06:35:38.563Z,1.10
2023-09-25T06:36:38.582Z,1.00
2023-09-25T06:37:40.121Z,1.00
2023-09-25T06:38:38.462Z,1.00
2023-09-25T06:39:38.493Z,1.10
2023-09-25T06:40:38.433Z,1.20
2023-09-25T06:41:38.490Z,1.00
2023-09-25T06:42:38.462Z,1.00
2023-09-25T06:43:38.422Z,1.00
2023-09-25T06:44:38.377Z,1.00
2023-09-25T06:45:38.455Z,1.00
2023-09-25T06:46:38.409Z,1.10
2023-09-25T06:47:38.806Z,1.20
2023-09-25T06:48:38.423Z,1.10
2023-09-25T06:49:38.338Z,1.00
2023-09-25T06:50:38.315Z,1.00
2023-09-25T06:51:38.521Z,1.00
2023-09-25T06:52:38.293Z,1.00
2023-09-25T06:53:38.315Z,1.10
2023-09-25T06:54:38.326Z,1.00
2023-09-25T06:55:38.276Z,1.10
2023-09-25T06:56:38.246Z,1.10
2023-09-25T06:57:38.286Z,1.10
2023-09-25T06:58:38.233Z,1.30
2023-09-25T06:59:38.240Z,1.00
2023-09-25T07:00:50.714Z,1.10
2023-09-25T07:01:39.297Z,1.20
2023-09-25T07:02:38.181Z,1.00
2023-09-25T07:03:38.285Z,1.50
2023-09-25T07:04:38.286Z,1.10
2023-09-25T07:05:38.243Z,1.00
2023-09-25T07:06:38.183Z,1.10
2023-09-25T07:07:38.123Z,1.10
2023-09-25T07:08:38.138Z,1.10
2023-09-25T07:09:38.187Z,1.30
2023-09-25T07:10:38.110Z,1.00
2023-09-25T07:11:38.104Z,1.00
2023-09-25T07:12:38.151Z,1.10
2023-09-25T07:13:38.084Z,1.00
2023-09-25T07:14:38.058Z,0.90
2023-09-25T07:15:38.126Z,1.00
2023-09-25T07:16:38.072Z,0.90
2023-09-25T07:17:38.112Z,1.20
2023-09-25T07:18:38.025Z,0.90
2023-09-25T07:19:37.999Z,0.90
2023-09-25T07:20:38.007Z,1.10
2023-09-25T07:21:38.064Z,1.10
2023-09-25T07:22:37.981Z,1.20
2023-09-25T07:23:38.161Z,0.80
2023-09-25T07:24:37.969Z,0.80
2023-09-25T07:25:37.938Z,0.90
2023-09-25T07:26:37.897Z,0.90
2023-09-25T07:27:38.027Z,0.80
2023-09-25T07:28:38.385Z,0.90
2023-09-25T07:29:41.854Z,0.80
2023-09-25T07:30:37.919Z,0.90
2023-09-25T07:31:37.905Z,0.70
2023-09-25T07:32:37.900Z,0.70
2023-09-25T07:33:37.887Z,0.80
2023-09-25T07:34:37.815Z,0.70
2023-09-25T07:35:37.818Z,0.90
2023-09-25T07:36:38.575Z,0.80
2023-09-25T07:37:37.839Z,1.00
2023-09-25T07:38:37.786Z,0.80
2023-09-25T07:39:37.858Z,0.70
2023-09-25T07:40:37.760Z,0.90
2023-09-25T07:41:37.792Z,1.10
2023-09-25T07:42:37.763Z,0.80
2023-09-25T07:43:51.111Z,0.70
2023-09-25T07:44:38.782Z,0.70
2023-09-25T07:45:37.744Z,0.70
2023-09-25T07:46:37.765Z,1.10
2023-09-25T07:47:37.723Z,0.90
2023-09-25T07:48:37.761Z,1.20
2023-09-25T07:49:37.685Z,1.00
2023-09-25T07:50:37.635Z,0.90
2023-09-25T07:51:37.689Z,0.80
2023-09-25T07:52:37.623Z,1.00
2023-09-25T07:53:37.626Z,0.90
2023-09-25T07:54:37.618Z,0.90
2023-09-25T07:55:37.603Z,0.80
2023-09-25T07:56:37.572Z,0.80
2023-09-25T07:57:37.638Z,0.80
2023-09-25T07:58:37.574Z,0.90
2023-09-25T07:59:37.563Z,0.80
2023-09-25T08:00:37.576Z,0.80
2023-09-25T08:01:37.568Z,0.70
2023-09-25T08:02:37.583Z,0.70
2023-09-25T08:03:37.606Z,0.80
2023-09-25T08:04:37.547Z,0.70
2023-09-25T08:05:37.735Z,0.80
2023-09-25T08:06:37.474Z,0.70
2023-09-25T08:07:37.466Z,0.80
2023-09-25T08:08:37.480Z,0.60
2023-09-25T08:09:37.603Z,0.70
2023-09-25T08:10:37.438Z,0.70
2023-09-25T08:11:37.440Z,0.60
2023-09-25T08:12:37.404Z,0.70
2023-09-25T08:13:37.417Z,0.60
2023-09-25T08:14:37.375Z,0.80
2023-09-25T08:15:37.425Z,1.40
2023-09-25T08:16:37.383Z,0.80
2023-09-25T08:17:37.388Z,0.60
2023-09-25T08:18:37.370Z,0.60
2023-09-25T08:19:37.454Z,0.70
2023-09-25T08:20:37.385Z,0.70
2023-09-25T08:21:37.352Z,0.60
2023-09-25T08:22:37.280Z,0.60
2023-09-25T08:23:37.282Z,0.60
2023-09-25T08:24:37.289Z,0.80
2023-09-25T08:25:37.300Z,0.70
2023-09-25T08:26:37.240Z,0.60
2023-09-25T08:27:37.311Z,0.80
2023-09-25T08:28:37.235Z,0.50
2023-09-25T08:29:37.224Z,0.50
2023-09-25T08:30:37.319Z,0.70
2023-09-25T08:31:37.285Z,0.60
2023-09-25T08:32:37.251Z,0.50
2023-09-25T08:33:37.261Z,0.70
2023-09-25T08:34:37.155Z,0.50
2023-09-25T08:35:37.159Z,0.60
2023-09-25T08:36:37.190Z,0.50
2023-09-25T08:37:37.127Z,0.50
2023-09-25T08:38:37.100Z,0.60
2023-09-25T08:39:37.216Z,0.70
2023-09-25T08:40:37.097Z,0.70
2023-09-25T08:41:37.095Z,0.50
2023-09-25T08:42:37.781Z,0.70
2023-09-25T08:43:37.077Z,0.50
2023-09-25T08:44:37.029Z,0.70
2023-09-25T08:45:37.244Z,0.60
2023-09-25T08:46:37.073Z,0.70
2023-09-25T08:47:37.039Z,0.50
2023-09-25T08:48:37.033Z,0.60
2023-09-25T08:49:37.727Z,0.50
2023-09-25T08:50:36.971Z,0.90
2023-09-25T08:51:37.081Z,0.70
2023-09-25T08:52:37.158Z,0.60
2023-09-25T08:53:36.971Z,0.60
2023-09-25T08:54:36.972Z,0.70
2023-09-25T08:55:36.951Z,0.60
2023-09-25T08:56:37.741Z,0.60
2023-09-25T08:57:37.790Z,0.60
2023-09-25T08:58:37.662Z,0.60
2023-09-25T08:59:37.371Z,0.60
2023-09-25T09:00:36.889Z,1.30
2023-09-25T09:01:36.959Z,0.60
2023-09-25T09:02:36.878Z,0.60
2023-09-25T09:03:37.177Z,0.70
2023-09-25T09:04:36.922Z,0.70
2023-09-25T09:05:37.280Z,0.60
2023-09-25T09:06:37.067Z,0.80
2023-09-25T09:07:36.775Z,0.70
2023-09-25T09:08:36.760Z,0.60
2023-09-25T09:09:36.820Z,0.80
2023-09-25T09:10:36.796Z,0.80
2023-09-25T09:11:37.009Z,0.70
2023-09-25T09:12:44.380Z,0.80
2023-09-25T09:13:37.722Z,0.70
2023-09-25T09:14:36.693Z,0.60
2023-09-25T09:15:36.717Z,0.80
2023-09-25T09:16:36.711Z,0.90
2023-09-25T09:17:36.960Z,0.80
2023-09-25T09:18:36.661Z,0.70
2023-09-25T09:19:36.671Z,0.70
2023-09-25T09:20:36.865Z,0.70
2023-09-25T09:21:36.757Z,0.90
2023-09-25T09:22:36.598Z,0.80
2023-09-25T09:23:36.620Z,0.80
2023-09-25T09:24:36.639Z,0.80
2023-09-25T09:25:36.588Z,0.80
2023-09-25T09:26:36.572Z,0.70
2023-09-25T09:27:36.588Z,0.70
2023-09-25T09:28:36.530Z,0.70
2023-09-25T09:29:36.532Z,0.70
2023-09-25T09:30:36.585Z,0.70
2023-09-25T09:31:36.520Z,0.80
2023-09-25T09:32:36.511Z,0.70
2023-09-25T09:33:36.571Z,0.70
2023-09-25T09:34:36.615Z,0.50
2023-09-25T09:35:36.484Z,0.60
2023-09-25T09:36:36.529Z,0.70
2023-09-25T09:37:36.442Z,0.70
2023-09-25T09:38:38.052Z,0.60
2023-09-25T09:39:36.544Z,0.50
2023-09-25T09:40:36.412Z,0.70
2023-09-25T09:41:36.382Z,0.70
2023-09-25T09:42:36.424Z,0.80
2023-09-25T09:43:36.377Z,0.90
2023-09-25T09:44:36.388Z,0.80
2023-09-25T09:45:36.454Z,0.70
2023-09-25T09:46:36.461Z,0.70
2023-09-25T09:47:36.877Z,0.80
2023-09-25T09:48:36.330Z,0.90
2023-09-25T09:49:36.321Z,1.00
2023-09-25T09:50:36.306Z,1.00
2023-09-25T09:51:36.347Z,0.80
2023-09-25T09:52:37.568Z,0.90
2023-09-25T09:53:36.280Z,0.70
2023-09-25T09:54:36.329Z,0.80
2023-09-25T09:55:36.244Z,0.80
2023-09-25T09:56:36.281Z,0.80
2023-09-25T09:57:36.473Z,0.80
2023-09-25T09:58:36.211Z,0.80
2023-09-25T09:59:36.373Z,0.90
2023-09-25T10:00:36.278Z,0.60
2023-09-25T10:01:36.327Z,0.60
2023-09-25T10:02:36.322Z,0.80
2023-09-25T10:03:36.473Z,0.70
2023-09-25T10:04:36.233Z,0.80
2023-09-25T10:05:36.872Z,0.80
2023-09-25T10:06:36.155Z,0.70
2023-09-25T10:07:36.707Z,0.60
2023-09-25T10:08:36.106Z,0.70
2023-09-25T10:09:36.126Z,0.70
2023-09-25T10:10:36.062Z,0.70
2023-09-25T10:11:36.056Z,0.70
2023-09-25T10:12:36.066Z,0.70
2023-09-25T10:13:36.014Z,0.70
2023-09-25T10:14:36.010Z,0.80
2023-09-25T10:15:36.983Z,0.90
2023-09-25T10:16:36.068Z,0.60
2023-09-25T10:17:36.344Z,0.60
2023-09-25T10:18:36.014Z,0.70
2023-09-25T10:19:35.972Z,0.80
2023-09-25T10:20:35.957Z,0.70
2023-09-25T10:21:35.987Z,0.80
2023-09-25T10:22:35.926Z,1.10
2023-09-25T10:23:35.920Z,0.70
2023-09-25T10:24:35.952Z,0.70
2023-09-25T10:25:36.803Z,1.10
2023-09-25T10:26:35.900Z,0.90
2023-09-25T10:27:36.612Z,1.10
2023-09-25T10:28:35.856Z,0.90
2023-09-25T10:29:36.614Z,0.70
2023-09-25T10:30:35.882Z,0.80
2023-09-25T10:31:36.804Z,1.00
2023-09-25T10:32:35.879Z,0.90
2023-09-25T10:33:35.876Z,0.90
2023-09-25T10:34:35.869Z,0.90
2023-09-25T10:35:35.780Z,0.80
2023-09-25T10:36:35.837Z,0.80
2023-09-25T10:37:35.919Z,0.80
2023-09-25T10:38:35.800Z,0.90
2023-09-25T10:39:35.856Z,0.90
2023-09-25T10:40:35.818Z,1.10
2023-09-25T10:41:35.818Z,0.80
2023-09-25T10:42:35.731Z,0.80
2023-09-25T10:43:35.671Z,0.90
2023-09-25T10:44:35.699Z,0.80
2023-09-25T10:45:35.772Z,0.70
2023-09-25T10:46:35.706Z,0.90
2023-09-25T10:47:35.687Z,0.90
2023-09-25T10:48:35.683Z,0.80
2023-09-25T10:49:35.635Z,0.80
2023-09-25T10:50:35.617Z,0.80
2023-09-25T10:51:35.623Z,0.70
2023-09-25T10:52:37.042Z,0.70
2023-09-25T10:53:35.566Z,1.00
2023-09-25T10:54:35.650Z,0.70
2023-09-25T10:55:35.531Z,0.80
2023-09-25T10:56:35.538Z,0.80
2023-09-25T10:57:35.553Z,0.70
2023-09-25T10:58:35.522Z,0.80
2023-09-25T10:59:35.522Z,0.80
2023-09-25T11:00:35.550Z,0.70
2023-09-25T11:01:35.514Z,0.70
2023-09-25T11:02:35.459Z,0.60
2023-09-25T11:03:35.923Z,0.80
2023-09-25T11:04:35.655Z,0.70
2023-09-25T11:05:35.427Z,1.30
2023-09-25T11:06:35.446Z,0.80
2023-09-25T11:07:35.416Z,0.70
2023-09-25T11:08:35.398Z,0.60
2023-09-25T11:09:35.454Z,0.90
2023-09-25T11:10:35.431Z,0.90
2023-09-25T11:11:35.529Z,0.70
2023-09-25T11:12:35.378Z,0.90
2023-09-25T11:13:35.395Z,0.60
2023-09-25T11:14:35.335Z,0.70
2023-09-25T11:15:35.355Z,0.70
2023-09-25T11:16:35.353Z,0.80
2023-09-25T11:17:35.302Z,0.60
2023-09-25T11:18:35.392Z,0.80
2023-09-25T11:19:35.286Z,0.80
2023-09-25T11:20:35.264Z,0.90
2023-09-25T11:21:35.334Z,0.70
2023-09-25T11:22:35.262Z,0.90
2023-09-25T11:23:35.245Z,0.60
2023-09-25T11:24:35.239Z,0.70
2023-09-25T11:25:35.192Z,0.80
2023-09-25T11:26:35.211Z,0.90
2023-09-25T11:27:35.259Z,0.70
2023-09-25T11:28:35.184Z,0.70
2023-09-25T11:29:35.872Z,0.90
2023-09-25T11:30:35.890Z,0.60
2023-09-25T11:31:50.092Z,0.60
2023-09-25T11:32:36.177Z,0.80
2023-09-25T11:33:36.110Z,0.90
2023-09-25T11:34:35.163Z,0.90
2023-09-25T11:35:35.114Z,0.80
2023-09-25T11:36:35.139Z,0.80
2023-09-25T11:37:35.050Z,0.80
2023-09-25T11:38:35.069Z,0.80
2023-09-25T11:39:35.179Z,0.80
2023-09-25T11:40:35.031Z,0.70
2023-09-25T11:41:35.008Z,0.70
2023-09-25T11:42:35.419Z,0.80
2023-09-25T11:43:35.347Z,0.80
2023-09-25T11:44:34.985Z,0.70
2023-09-25T11:45:35.409Z,0.60
2023-09-25T11:46:35.002Z,0.60
2023-09-25T11:47:34.995Z,0.50
2023-09-25T11:48:35.503Z,0.70
2023-09-25T11:49:35.493Z,0.70
2023-09-25T11:50:35.532Z,0.80
2023-09-25T11:51:35.571Z,0.80
2023-09-25T11:52:34.927Z,0.70
2023-09-25T11:53:34.984Z,0.70
2023-09-25T11:54:34.935Z,0.60
2023-09-25T11:55:34.871Z,0.60
2023-09-25T11:56:34.904Z,0.60
2023-09-25T11:57:34.961Z,0.70
2023-09-25T11:58:34.851Z,0.70
2023-09-25T11:59:34.882Z,0.70
2023-09-25T12:00:34.859Z,0.80
2023-09-25T12:01:34.927Z,0.70
2023-09-25T12:02:34.785Z,0.50
2023-09-25T12:03:34.833Z,0.70
2023-09-25T12:04:34.881Z,0.60
2023-09-25T12:05:34.889Z,0.60
2023-09-25T12:06:35.905Z,0.70
2023-09-25T12:07:34.766Z,0.80
2023-09-25T12:08:34.900Z,0.80
2023-09-25T12:09:34.922Z,0.80
2023-09-25T12:10:34.697Z,0.90
2023-09-25T12:11:34.691Z,0.70
2023-09-25T12:12:34.730Z,0.70
2023-09-25T12:13:34.661Z,0.80
2023-09-25T12:14:34.684Z,0.70
2023-09-25T12:15:34.938Z,0.70
2023-09-25T12:16:34.788Z,0.70
2023-09-25T12:17:35.049Z,0.70
2023-09-25T12:18:35.119Z,0.70
2023-09-25T12:19:35.002Z,0.60
2023-09-25T12:20:34.616Z,0.60
2023-09-25T12:21:35.128Z,0.70
2023-09-25T12:22:34.563Z,0.70
2023-09-25T12:23:34.965Z,0.70
2023-09-25T12:24:34.612Z,0.70
2023-09-25T12:25:35.358Z,0.60
2023-09-25T12:26:34.514Z,0.90
2023-09-25T12:27:34.648Z,0.70
2023-09-25T12:28:34.615Z,0.80
2023-09-25T12:29:34.549Z,0.70
2023-09-25T12:30:34.641Z,0.60
2023-09-25T12:31:34.877Z,0.70
2023-09-25T12:32:34.481Z,0.70
2023-09-25T12:33:34.734Z,0.60
2023-09-25T12:34:34.451Z,0.70
2023-09-25T12:35:34.389Z,1.00
2023-09-25T12:36:34.435Z,0.90
2023-09-25T12:37:34.814Z,0.80
2023-09-25T12:38:34.407Z,0.70
2023-09-25T12:39:34.656Z,0.70
2023-09-25T12:40:34.937Z,0.70
2023-09-25T12:41:34.326Z,0.70
2023-09-25T12:42:51.279Z,0.80
2023-09-25T12:43:35.490Z,0.70
2023-09-25T12:44:34.297Z,0.70
2023-09-25T12:45:34.401Z,0.70
2023-09-25T12:46:34.295Z,0.70
2023-09-25T12:47:34.332Z,0.80
2023-09-25T12:48:34.415Z,0.80
2023-09-25T12:49:34.322Z,0.70
2023-09-25T12:50:34.878Z,0.70
2023-09-25T12:51:34.266Z,0.70
2023-09-25T12:52:34.232Z,0.60
2023-09-25T12:53:34.316Z,0.70
2023-09-25T12:54:34.231Z,0.70
2023-09-25T12:55:34.184Z,0.70
2023-09-25T12:56:34.387Z,0.60
2023-09-25T12:57:34.188Z,0.60
2023-09-25T12:58:34.965Z,0.60
2023-09-25T12:59:34.119Z,0.60
2023-09-25T13:00:34.986Z,0.70
2023-09-25T13:01:34.412Z,0.80
2023-09-25T13:02:35.014Z,0.70
2023-09-25T13:03:34.562Z,0.70
2023-09-25T13:04:35.110Z,0.70
2023-09-25T13:05:34.470Z,0.80
2023-09-25T13:06:34.601Z,0.60
2023-09-25T13:07:34.295Z,0.70
2023-09-25T13:08:35.015Z,0.60
2023-09-25T13:09:34.100Z,1.00
2023-09-25T13:10:34.018Z,0.70
2023-09-25T13:11:34.031Z,0.90
2023-09-25T13:12:34.073Z,0.80
2023-09-25T13:13:34.040Z,0.90
2023-09-25T13:14:34.049Z,0.70
2023-09-25T13:15:34.000Z,0.80
2023-09-25T13:16:34.067Z,0.80
2023-09-25T13:17:33.986Z,1.00
2023-09-25T13:18:33.946Z,1.00